sensor_id;sensor_type;location;lat;lon;timestamp;P1;durP1;ratioP1;P2;durP2;ratioP2
4726;SDS011;2377;51.734;8.950;2023-04-08T00:01:00;10.07;;;7.00;;
4726;SDS011;2377;51.734;8.950;2023-04-08T00:03:27;13.07;;;8.53;;
4726;SDS011;2377;51.734;8.950;2023-04-08T00:05:56;10.27;;;6.43;;
4726;SDS011;2377;51.734;8.950;2023-04-08T00:08:24;12.70;;;6.43;;
4726;SDS011;2377;51.734;8.950;2023-04-08T00:10:51;10.90;;;6.30;;
4726;SDS011;2377;51.734;8.950;2023-04-08T00:13:18;9.77;;;6.37;;
4726;SDS011;2377;51.734;8.950;2023-04-08T00:15:46;10.93;;;6.50;;
4726;SDS011;2377;51.734;8.950;2023-04-08T00:18:13;8.37;;;6.00;;
4726;SDS011;2377;51.734;8.950;2023-04-08T00:20:42;8.03;;;6.10;;
4726;SDS011;2377;51.734;8.950;2023-04-08T00:23:11;9.93;;;6.70;;
4726;SDS011;2377;51.734;8.950;2023-04-08T00:25:38;12.40;;;6.70;;
4726;SDS011;2377;51.734;8.950;2023-04-08T00:28:05;10.13;;;6.73;;
4726;SDS011;2377;51.734;8.950;2023-04-08T00:30:33;9.40;;;5.93;;
4726;SDS011;2377;51.734;8.950;2023-04-08T00:33:00;9.80;;;6.33;;
4726;SDS011;2377;51.734;8.950;2023-04-08T00:35:27;10.80;;;6.87;;
4726;SDS011;2377;51.734;8.950;2023-04-08T00:37:54;9.83;;;6.27;;
4726;SDS011;2377;51.734;8.950;2023-04-08T00:40:23;10.07;;;6.60;;
4726;SDS011;2377;51.734;8.950;2023-04-08T00:42:50;10.53;;;6.43;;
4726;SDS011;2377;51.734;8.950;2023-04-08T00:45:17;8.10;;;6.13;;
4726;SDS011;2377;51.734;8.950;2023-04-08T00:47:44;9.57;;;5.80;;
4726;SDS011;2377;51.734;8.950;2023-04-08T00:50:16;8.87;;;6.20;;
4726;SDS011;2377;51.734;8.950;2023-04-08T00:52:45;8.40;;;6.43;;
4726;SDS011;2377;51.734;8.950;2023-04-08T00:55:12;12.50;;;6.97;;
4726;SDS011;2377;51.734;8.950;2023-04-08T00:57:40;8.97;;;6.40;;
4726;SDS011;2377;51.734;8.950;2023-04-08T01:00:08;9.90;;;6.60;;
4726;SDS011;2377;51.734;8.950;2023-04-08T01:02:38;9.90;;;6.40;;
4726;SDS011;2377;51.734;8.950;2023-04-08T01:05:19;11.83;;;7.40;;
4726;SDS011;2377;51.734;8.950;2023-04-08T01:07:54;10.10;;;6.50;;
4726;SDS011;2377;51.734;8.950;2023-04-08T01:10:26;9.43;;;6.37;;
4726;SDS011;2377;51.734;8.950;2023-04-08T01:13:03;9.97;;;6.60;;
4726;SDS011;2377;51.734;8.950;2023-04-08T01:15:35;10.53;;;7.13;;
4726;SDS011;2377;51.734;8.950;2023-04-08T01:18:08;10.23;;;6.27;;
4726;SDS011;2377;51.734;8.950;2023-04-08T01:20:39;10.50;;;6.73;;
4726;SDS011;2377;51.734;8.950;2023-04-08T01:23:09;12.20;;;7.33;;
4726;SDS011;2377;51.734;8.950;2023-04-08T01:25:50;9.57;;;6.80;;
4726;SDS011;2377;51.734;8.950;2023-04-08T01:28:18;8.80;;;5.40;;
4726;SDS011;2377;51.734;8.950;2023-04-08T01:30:49;7.80;;;5.67;;
4726;SDS011;2377;51.734;8.950;2023-04-08T01:33:20;8.83;;;5.87;;
4726;SDS011;2377;51.734;8.950;2023-04-08T01:35:49;9.40;;;6.53;;
4726;SDS011;2377;51.734;8.950;2023-04-08T01:38:19;7.80;;;5.60;;
4726;SDS011;2377;51.734;8.950;2023-04-08T01:40:51;9.23;;;6.53;;
4726;SDS011;2377;51.734;8.950;2023-04-08T01:43:20;11.73;;;6.80;;
4726;SDS011;2377;51.734;8.950;2023-04-08T01:45:49;10.20;;;7.30;;
4726;SDS011;2377;51.734;8.950;2023-04-08T01:48:22;12.47;;;6.80;;
4726;SDS011;2377;51.734;8.950;2023-04-08T01:50:50;9.87;;;6.80;;
4726;SDS011;2377;51.734;8.950;2023-04-08T01:53:18;10.20;;;6.23;;
4726;SDS011;2377;51.734;8.950;2023-04-08T01:55:46;11.13;;;7.00;;
4726;SDS011;2377;51.734;8.950;2023-04-08T01:58:22;9.20;;;6.07;;
4726;SDS011;2377;51.734;8.950;2023-04-08T02:00:57;12.43;;;6.63;;
4726;SDS011;2377;51.734;8.950;2023-04-08T02:03:26;9.73;;;5.60;;
4726;SDS011;2377;51.734;8.950;2023-04-08T02:05:56;9.57;;;6.43;;
4726;SDS011;2377;51.734;8.950;2023-04-08T02:08:23;8.17;;;6.00;;
4726;SDS011;2377;51.734;8.950;2023-04-08T02:10:50;8.70;;;5.30;;
4726;SDS011;2377;51.734;8.950;2023-04-08T02:13:18;9.67;;;5.70;;
4726;SDS011;2377;51.734;8.950;2023-04-08T02:15:46;7.70;;;5.80;;
4726;SDS011;2377;51.734;8.950;2023-04-08T02:18:29;10.03;;;6.13;;
4726;SDS011;2377;51.734;8.950;2023-04-08T02:21:01;10.10;;;6.10;;
4726;SDS011;2377;51.734;8.950;2023-04-08T02:23:33;10.17;;;6.87;;
4726;SDS011;2377;51.734;8.950;2023-04-08T02:26:05;8.80;;;5.43;;
4726;SDS011;2377;51.734;8.950;2023-04-08T02:28:40;9.83;;;6.30;;
4726;SDS011;2377;51.734;8.950;2023-04-08T02:31:09;9.13;;;5.97;;
4726;SDS011;2377;51.734;8.950;2023-04-08T02:33:39;8.90;;;5.60;;
4726;SDS011;2377;51.734;8.950;2023-04-08T02:36:07;9.90;;;6.60;;
4726;SDS011;2377;51.734;8.950;2023-04-08T02:38:37;9.00;;;6.43;;
4726;SDS011;2377;51.734;8.950;2023-04-08T02:41:04;11.37;;;7.30;;
4726;SDS011;2377;51.734;8.950;2023-04-08T02:43:31;7.90;;;5.83;;
4726;SDS011;2377;51.734;8.950;2023-04-08T02:46:00;8.73;;;5.83;;
4726;SDS011;2377;51.734;8.950;2023-04-08T02:48:27;9.63;;;6.07;;
4726;SDS011;2377;51.734;8.950;2023-04-08T02:50:55;11.87;;;7.10;;
4726;SDS011;2377;51.734;8.950;2023-04-08T02:53:22;9.20;;;7.20;;
4726;SDS011;2377;51.734;8.950;2023-04-08T02:55:50;12.87;;;7.40;;
4726;SDS011;2377;51.734;8.950;2023-04-08T02:58:17;9.80;;;6.67;;
4726;SDS011;2377;51.734;8.950;2023-04-08T03:00:44;10.53;;;6.57;;
4726;SDS011;2377;51.734;8.950;2023-04-08T03:03:13;11.40;;;6.60;;
4726;SDS011;2377;51.734;8.950;2023-04-08T03:05:40;10.60;;;6.90;;
4726;SDS011;2377;51.734;8.950;2023-04-08T03:08:07;10.77;;;6.50;;
4726;SDS011;2377;51.734;8.950;2023-04-08T03:10:34;9.70;;;6.57;;
4726;SDS011;2377;51.734;8.950;2023-04-08T03:13:01;8.43;;;6.33;;
4726;SDS011;2377;51.734;8.950;2023-04-08T03:15:28;9.30;;;6.63;;
4726;SDS011;2377;51.734;8.950;2023-04-08T03:17:55;11.47;;;6.77;;
4726;SDS011;2377;51.734;8.950;2023-04-08T03:20:24;11.90;;;7.30;;
4726;SDS011;2377;51.734;8.950;2023-04-08T03:22:51;10.63;;;7.40;;
4726;SDS011;2377;51.734;8.950;2023-04-08T03:25:18;11.10;;;7.37;;
4726;SDS011;2377;51.734;8.950;2023-04-08T03:27:45;12.03;;;7.67;;
4726;SDS011;2377;51.734;8.950;2023-04-08T03:30:12;11.30;;;7.50;;
4726;SDS011;2377;51.734;8.950;2023-04-08T03:32:39;12.67;;;7.70;;
4726;SDS011;2377;51.734;8.950;2023-04-08T03:35:07;12.93;;;8.00;;
4726;SDS011;2377;51.734;8.950;2023-04-08T03:37:36;11.40;;;7.93;;
4726;SDS011;2377;51.734;8.950;2023-04-08T03:40:03;11.47;;;7.90;;
4726;SDS011;2377;51.734;8.950;2023-04-08T03:42:32;14.37;;;8.83;;
4726;SDS011;2377;51.734;8.950;2023-04-08T03:44:59;11.63;;;8.30;;
4726;SDS011;2377;51.734;8.950;2023-04-08T03:47:26;14.70;;;9.30;;
4726;SDS011;2377;51.734;8.950;2023-04-08T03:49:53;14.13;;;9.10;;
4726;SDS011;2377;51.734;8.950;2023-04-08T03:52:20;12.03;;;8.70;;
4726;SDS011;2377;51.734;8.950;2023-04-08T03:54:49;14.60;;;9.43;;
4726;SDS011;2377;51.734;8.950;2023-04-08T03:57:16;14.60;;;8.87;;
4726;SDS011;2377;51.734;8.950;2023-04-08T03:59:43;14.10;;;9.30;;
4726;SDS011;2377;51.734;8.950;2023-04-08T04:02:10;15.20;;;8.90;;
4726;SDS011;2377;51.734;8.950;2023-04-08T04:04:37;14.53;;;8.73;;
4726;SDS011;2377;51.734;8.950;2023-04-08T04:07:04;13.73;;;8.63;;
4726;SDS011;2377;51.734;8.950;2023-04-08T04:09:31;12.97;;;8.10;;
4726;SDS011;2377;51.734;8.950;2023-04-08T04:12:00;13.60;;;9.00;;
4726;SDS011;2377;51.734;8.950;2023-04-08T04:14:27;13.20;;;8.77;;
4726;SDS011;2377;51.734;8.950;2023-04-08T04:16:54;16.37;;;9.27;;
4726;SDS011;2377;51.734;8.950;2023-04-08T04:19:21;12.13;;;7.77;;
4726;SDS011;2377;51.734;8.950;2023-04-08T04:21:48;13.30;;;9.20;;
4726;SDS011;2377;51.734;8.950;2023-04-08T04:24:15;14.60;;;9.37;;
4726;SDS011;2377;51.734;8.950;2023-04-08T04:26:42;12.80;;;8.80;;
4726;SDS011;2377;51.734;8.950;2023-04-08T04:29:10;12.87;;;9.37;;
4726;SDS011;2377;51.734;8.950;2023-04-08T04:31:37;14.80;;;10.00;;
4726;SDS011;2377;51.734;8.950;2023-04-08T04:34:04;16.70;;;10.23;;
4726;SDS011;2377;51.734;8.950;2023-04-08T04:36:31;17.17;;;10.40;;
4726;SDS011;2377;51.734;8.950;2023-04-08T04:38:59;17.37;;;10.87;;
4726;SDS011;2377;51.734;8.950;2023-04-08T04:41:26;16.27;;;10.90;;
4726;SDS011;2377;51.734;8.950;2023-04-08T04:43:53;16.00;;;10.70;;
4726;SDS011;2377;51.734;8.950;2023-04-08T04:46:22;16.83;;;11.10;;
4726;SDS011;2377;51.734;8.950;2023-04-08T04:48:49;15.63;;;11.30;;
4726;SDS011;2377;51.734;8.950;2023-04-08T04:51:16;16.90;;;10.90;;
4726;SDS011;2377;51.734;8.950;2023-04-08T04:53:43;19.27;;;13.23;;
4726;SDS011;2377;51.734;8.950;2023-04-08T04:56:10;19.30;;;13.23;;
4726;SDS011;2377;51.734;8.950;2023-04-08T04:58:37;22.53;;;12.40;;
4726;SDS011;2377;51.734;8.950;2023-04-08T05:01:04;18.87;;;13.30;;
4726;SDS011;2377;51.734;8.950;2023-04-08T05:03:33;20.50;;;12.57;;
4726;SDS011;2377;51.734;8.950;2023-04-08T05:06:00;23.47;;;13.43;;
4726;SDS011;2377;51.734;8.950;2023-04-08T05:08:27;16.13;;;12.30;;
4726;SDS011;2377;51.734;8.950;2023-04-08T05:10:54;19.73;;;11.43;;
4726;SDS011;2377;51.734;8.950;2023-04-08T05:13:23;18.57;;;12.17;;
4726;SDS011;2377;51.734;8.950;2023-04-08T05:15:50;19.83;;;13.27;;
4726;SDS011;2377;51.734;8.950;2023-04-08T05:18:18;20.47;;;13.60;;
4726;SDS011;2377;51.734;8.950;2023-04-08T05:20:46;19.53;;;13.50;;
4726;SDS011;2377;51.734;8.950;2023-04-08T05:23:14;19.87;;;13.30;;
4726;SDS011;2377;51.734;8.950;2023-04-08T05:25:41;19.60;;;14.03;;
4726;SDS011;2377;51.734;8.950;2023-04-08T05:28:08;23.23;;;14.00;;
4726;SDS011;2377;51.734;8.950;2023-04-08T05:30:35;20.07;;;13.30;;
4726;SDS011;2377;51.734;8.950;2023-04-08T05:33:02;17.53;;;12.40;;
4726;SDS011;2377;51.734;8.950;2023-04-08T05:35:29;17.47;;;12.10;;
4726;SDS011;2377;51.734;8.950;2023-04-08T05:37:58;19.60;;;13.80;;
4726;SDS011;2377;51.734;8.950;2023-04-08T05:40:25;20.20;;;13.07;;
4726;SDS011;2377;51.734;8.950;2023-04-08T05:42:52;22.40;;;12.83;;
4726;SDS011;2377;51.734;8.950;2023-04-08T05:45:19;17.47;;;12.10;;
4726;SDS011;2377;51.734;8.950;2023-04-08T05:47:46;18.37;;;11.37;;
4726;SDS011;2377;51.734;8.950;2023-04-08T05:50:13;17.40;;;12.60;;
4726;SDS011;2377;51.734;8.950;2023-04-08T05:52:41;21.20;;;14.13;;
4726;SDS011;2377;51.734;8.950;2023-04-08T05:55:11;20.53;;;12.87;;
4726;SDS011;2377;51.734;8.950;2023-04-08T05:57:39;18.63;;;12.50;;
4726;SDS011;2377;51.734;8.950;2023-04-08T06:00:07;17.67;;;11.83;;
4726;SDS011;2377;51.734;8.950;2023-04-08T06:02:36;19.13;;;12.80;;
4726;SDS011;2377;51.734;8.950;2023-04-08T06:05:04;17.00;;;11.80;;
4726;SDS011;2377;51.734;8.950;2023-04-08T06:07:32;19.03;;;12.90;;
4726;SDS011;2377;51.734;8.950;2023-04-08T06:09:59;17.27;;;11.50;;
4726;SDS011;2377;51.734;8.950;2023-04-08T06:12:28;25.57;;;14.40;;
4726;SDS011;2377;51.734;8.950;2023-04-08T06:14:55;19.07;;;12.60;;
4726;SDS011;2377;51.734;8.950;2023-04-08T06:17:23;21.97;;;12.03;;
4726;SDS011;2377;51.734;8.950;2023-04-08T06:19:50;19.67;;;13.37;;
4726;SDS011;2377;51.734;8.950;2023-04-08T06:22:17;24.80;;;14.90;;
4726;SDS011;2377;51.734;8.950;2023-04-08T06:24:45;26.00;;;15.80;;
4726;SDS011;2377;51.734;8.950;2023-04-08T06:27:13;22.07;;;14.23;;
4726;SDS011;2377;51.734;8.950;2023-04-08T06:29:42;32.83;;;26.90;;
4726;SDS011;2377;51.734;8.950;2023-04-08T06:32:09;24.50;;;15.40;;
4726;SDS011;2377;51.734;8.950;2023-04-08T06:34:36;23.33;;;15.67;;
4726;SDS011;2377;51.734;8.950;2023-04-08T06:37:03;21.27;;;13.50;;
4726;SDS011;2377;51.734;8.950;2023-04-08T06:39:31;25.93;;;15.73;;
4726;SDS011;2377;51.734;8.950;2023-04-08T06:41:58;26.50;;;16.03;;
4726;SDS011;2377;51.734;8.950;2023-04-08T06:44:25;22.43;;;14.07;;
4726;SDS011;2377;51.734;8.950;2023-04-08T06:46:54;24.53;;;15.20;;
4726;SDS011;2377;51.734;8.950;2023-04-08T06:49:21;24.67;;;15.10;;
4726;SDS011;2377;51.734;8.950;2023-04-08T06:51:48;25.73;;;14.90;;
4726;SDS011;2377;51.734;8.950;2023-04-08T06:54:16;25.70;;;15.40;;
4726;SDS011;2377;51.734;8.950;2023-04-08T06:56:43;23.47;;;15.47;;
4726;SDS011;2377;51.734;8.950;2023-04-08T06:59:10;20.80;;;13.60;;
4726;SDS011;2377;51.734;8.950;2023-04-08T07:01:37;20.50;;;13.77;;
4726;SDS011;2377;51.734;8.950;2023-04-08T07:04:07;19.83;;;13.90;;
4726;SDS011;2377;51.734;8.950;2023-04-08T07:06:34;20.10;;;13.00;;
4726;SDS011;2377;51.734;8.950;2023-04-08T07:09:01;17.50;;;11.50;;
4726;SDS011;2377;51.734;8.950;2023-04-08T07:11:28;22.90;;;14.73;;
4726;SDS011;2377;51.734;8.950;2023-04-08T07:13:55;21.83;;;12.77;;
4726;SDS011;2377;51.734;8.950;2023-04-08T07:16:22;17.77;;;12.00;;
4726;SDS011;2377;51.734;8.950;2023-04-08T07:18:49;23.93;;;15.23;;
4726;SDS011;2377;51.734;8.950;2023-04-08T07:21:18;22.57;;;14.10;;
4726;SDS011;2377;51.734;8.950;2023-04-08T07:23:45;25.07;;;15.27;;
4726;SDS011;2377;51.734;8.950;2023-04-08T07:26:12;21.33;;;13.83;;
4726;SDS011;2377;51.734;8.950;2023-04-08T07:28:38;26.30;;;15.30;;
4726;SDS011;2377;51.734;8.950;2023-04-08T07:31:09;23.83;;;14.17;;
4726;SDS011;2377;51.734;8.950;2023-04-08T07:33:38;25.33;;;14.40;;
4726;SDS011;2377;51.734;8.950;2023-04-08T07:36:05;24.50;;;15.40;;
4726;SDS011;2377;51.734;8.950;2023-04-08T07:38:35;25.37;;;15.33;;
4726;SDS011;2377;51.734;8.950;2023-04-08T07:41:02;25.27;;;15.97;;
4726;SDS011;2377;51.734;8.950;2023-04-08T07:43:29;22.70;;;13.90;;
4726;SDS011;2377;51.734;8.950;2023-04-08T07:46:01;21.33;;;12.93;;
4726;SDS011;2377;51.734;8.950;2023-04-08T07:48:29;24.00;;;14.20;;
4726;SDS011;2377;51.734;8.950;2023-04-08T07:50:56;23.40;;;14.93;;
4726;SDS011;2377;51.734;8.950;2023-04-08T07:53:23;23.13;;;14.60;;
4726;SDS011;2377;51.734;8.950;2023-04-08T07:55:53;19.03;;;13.17;;
4726;SDS011;2377;51.734;8.950;2023-04-08T07:58:19;21.00;;;13.80;;
4726;SDS011;2377;51.734;8.950;2023-04-08T08:00:46;22.00;;;12.93;;
4726;SDS011;2377;51.734;8.950;2023-04-08T08:03:13;24.33;;;14.27;;
4726;SDS011;2377;51.734;8.950;2023-04-08T08:05:40;21.70;;;13.40;;
4726;SDS011;2377;51.734;8.950;2023-04-08T08:08:08;21.03;;;13.53;;
4726;SDS011;2377;51.734;8.950;2023-04-08T08:10:36;22.57;;;12.73;;
4726;SDS011;2377;51.734;8.950;2023-04-08T08:13:05;18.27;;;11.30;;
4726;SDS011;2377;51.734;8.950;2023-04-08T08:15:35;26.53;;;14.93;;
4726;SDS011;2377;51.734;8.950;2023-04-08T08:18:02;21.13;;;12.97;;
4726;SDS011;2377;51.734;8.950;2023-04-08T08:20:29;25.93;;;15.87;;
4726;SDS011;2377;51.734;8.950;2023-04-08T08:22:56;19.60;;;12.03;;
4726;SDS011;2377;51.734;8.950;2023-04-08T08:25:23;23.63;;;13.90;;
4726;SDS011;2377;51.734;8.950;2023-04-08T08:27:50;19.13;;;12.70;;
4726;SDS011;2377;51.734;8.950;2023-04-08T08:30:18;19.27;;;12.80;;
4726;SDS011;2377;51.734;8.950;2023-04-08T08:32:46;19.93;;;12.40;;
4726;SDS011;2377;51.734;8.950;2023-04-08T08:35:14;26.70;;;14.57;;
4726;SDS011;2377;51.734;8.950;2023-04-08T08:37:41;19.30;;;11.17;;
4726;SDS011;2377;51.734;8.950;2023-04-08T08:40:08;19.43;;;12.80;;
4726;SDS011;2377;51.734;8.950;2023-04-08T08:42:36;23.17;;;12.70;;
4726;SDS011;2377;51.734;8.950;2023-04-08T08:45:04;23.73;;;13.70;;
4726;SDS011;2377;51.734;8.950;2023-04-08T08:47:34;19.03;;;12.10;;
4726;SDS011;2377;51.734;8.950;2023-04-08T08:50:01;18.93;;;12.87;;
4726;SDS011;2377;51.734;8.950;2023-04-08T08:52:29;19.33;;;12.33;;
4726;SDS011;2377;51.734;8.950;2023-04-08T08:54:56;30.70;;;15.17;;
4726;SDS011;2377;51.734;8.950;2023-04-08T08:57:25;18.87;;;12.00;;
4726;SDS011;2377;51.734;8.950;2023-04-08T08:59:52;22.80;;;13.37;;
4726;SDS011;2377;51.734;8.950;2023-04-08T09:02:22;20.10;;;12.20;;
4726;SDS011;2377;51.734;8.950;2023-04-08T09:04:57;21.23;;;13.23;;
4726;SDS011;2377;51.734;8.950;2023-04-08T09:07:26;24.53;;;13.50;;
4726;SDS011;2377;51.734;8.950;2023-04-08T09:09:56;26.20;;;14.20;;
4726;SDS011;2377;51.734;8.950;2023-04-08T09:12:24;23.30;;;14.13;;
4726;SDS011;2377;51.734;8.950;2023-04-08T09:15:01;23.73;;;14.27;;
4726;SDS011;2377;51.734;8.950;2023-04-08T09:17:30;28.03;;;14.47;;
4726;SDS011;2377;51.734;8.950;2023-04-08T09:20:04;25.17;;;14.50;;
4726;SDS011;2377;51.734;8.950;2023-04-08T09:25:22;26.50;;;13.20;;
4726;SDS011;2377;51.734;8.950;2023-04-08T09:27:50;19.00;;;12.13;;
4726;SDS011;2377;51.734;8.950;2023-04-08T09:30:18;22.93;;;14.20;;
4726;SDS011;2377;51.734;8.950;2023-04-08T09:32:48;21.90;;;13.33;;
4726;SDS011;2377;51.734;8.950;2023-04-08T09:35:18;22.17;;;13.23;;
4726;SDS011;2377;51.734;8.950;2023-04-08T09:37:46;20.77;;;13.03;;
4726;SDS011;2377;51.734;8.950;2023-04-08T09:40:15;20.87;;;13.17;;
4726;SDS011;2377;51.734;8.950;2023-04-08T09:42:46;22.63;;;13.90;;
4726;SDS011;2377;51.734;8.950;2023-04-08T09:45:16;21.30;;;12.03;;
4726;SDS011;2377;51.734;8.950;2023-04-08T09:47:55;21.60;;;12.73;;
4726;SDS011;2377;51.734;8.950;2023-04-08T09:50:29;23.53;;;14.27;;
4726;SDS011;2377;51.734;8.950;2023-04-08T09:53:03;24.90;;;14.43;;
4726;SDS011;2377;51.734;8.950;2023-04-08T09:55:39;27.93;;;16.70;;
4726;SDS011;2377;51.734;8.950;2023-04-08T09:58:10;26.80;;;15.70;;
4726;SDS011;2377;51.734;8.950;2023-04-08T10:00:43;25.93;;;15.27;;
4726;SDS011;2377;51.734;8.950;2023-04-08T10:03:21;30.80;;;16.23;;
4726;SDS011;2377;51.734;8.950;2023-04-08T10:05:56;27.83;;;15.07;;
4726;SDS011;2377;51.734;8.950;2023-04-08T10:08:27;35.73;;;20.63;;
4726;SDS011;2377;51.734;8.950;2023-04-08T10:10:57;42.20;;;23.40;;
4726;SDS011;2377;51.734;8.950;2023-04-08T10:13:24;35.83;;;19.23;;
4726;SDS011;2377;51.734;8.950;2023-04-08T10:16:01;25.10;;;15.13;;
4726;SDS011;2377;51.734;8.950;2023-04-08T10:18:48;78.13;;;38.23;;
4726;SDS011;2377;51.734;8.950;2023-04-08T10:24:07;70.40;;;37.60;;
4726;SDS011;2377;51.734;8.950;2023-04-08T10:26:36;42.33;;;21.67;;
4726;SDS011;2377;51.734;8.950;2023-04-08T10:32:01;59.87;;;31.53;;
4726;SDS011;2377;51.734;8.950;2023-04-08T10:34:28;30.10;;;18.00;;
4726;SDS011;2377;51.734;8.950;2023-04-08T10:36:56;30.47;;;15.90;;
4726;SDS011;2377;51.734;8.950;2023-04-08T10:39:27;23.73;;;14.20;;
4726;SDS011;2377;51.734;8.950;2023-04-08T10:41:55;23.83;;;14.47;;
4726;SDS011;2377;51.734;8.950;2023-04-08T10:44:23;33.60;;;15.50;;
4726;SDS011;2377;51.734;8.950;2023-04-08T10:46:52;27.87;;;14.67;;
4726;SDS011;2377;51.734;8.950;2023-04-08T10:49:19;27.60;;;15.60;;
4726;SDS011;2377;51.734;8.950;2023-04-08T10:51:47;25.27;;;15.17;;
4726;SDS011;2377;51.734;8.950;2023-04-08T10:54:15;23.50;;;14.13;;
4726;SDS011;2377;51.734;8.950;2023-04-08T10:56:44;24.40;;;15.13;;
4726;SDS011;2377;51.734;8.950;2023-04-08T10:59:15;29.63;;;15.90;;
4726;SDS011;2377;51.734;8.950;2023-04-08T11:01:44;26.80;;;14.00;;
4726;SDS011;2377;51.734;8.950;2023-04-08T11:04:12;33.87;;;17.33;;
4726;SDS011;2377;51.734;8.950;2023-04-08T11:06:41;30.17;;;17.03;;
4726;SDS011;2377;51.734;8.950;2023-04-08T11:09:09;28.97;;;16.93;;
4726;SDS011;2377;51.734;8.950;2023-04-08T11:11:38;31.07;;;15.53;;
4726;SDS011;2377;51.734;8.950;2023-04-08T11:14:07;28.07;;;15.17;;
4726;SDS011;2377;51.734;8.950;2023-04-08T11:16:36;26.87;;;15.47;;
4726;SDS011;2377;51.734;8.950;2023-04-08T11:19:03;28.30;;;14.60;;
4726;SDS011;2377;51.734;8.950;2023-04-08T11:21:34;31.83;;;16.50;;
4726;SDS011;2377;51.734;8.950;2023-04-08T11:24:05;27.67;;;15.27;;
4726;SDS011;2377;51.734;8.950;2023-04-08T11:26:38;29.17;;;17.10;;
4726;SDS011;2377;51.734;8.950;2023-04-08T11:29:09;29.23;;;16.53;;
4726;SDS011;2377;51.734;8.950;2023-04-08T11:31:40;30.70;;;16.27;;
4726;SDS011;2377;51.734;8.950;2023-04-08T11:34:09;26.43;;;15.60;;
4726;SDS011;2377;51.734;8.950;2023-04-08T11:36:38;31.77;;;17.80;;
4726;SDS011;2377;51.734;8.950;2023-04-08T11:39:08;28.80;;;15.13;;
4726;SDS011;2377;51.734;8.950;2023-04-08T11:41:37;30.20;;;16.87;;
4726;SDS011;2377;51.734;8.950;2023-04-08T11:44:05;29.93;;;16.30;;
4726;SDS011;2377;51.734;8.950;2023-04-08T11:46:33;33.90;;;17.07;;
4726;SDS011;2377;51.734;8.950;2023-04-08T11:49:02;26.23;;;15.83;;
4726;SDS011;2377;51.734;8.950;2023-04-08T11:51:32;26.93;;;14.87;;
4726;SDS011;2377;51.734;8.950;2023-04-08T11:54:42;31.87;;;16.53;;
4726;SDS011;2377;51.734;8.950;2023-04-08T11:57:11;27.80;;;16.30;;
4726;SDS011;2377;51.734;8.950;2023-04-08T11:59:39;29.60;;;15.43;;
4726;SDS011;2377;51.734;8.950;2023-04-08T12:02:17;29.77;;;17.20;;
4726;SDS011;2377;51.734;8.950;2023-04-08T12:05:24;31.30;;;18.30;;
4726;SDS011;2377;51.734;8.950;2023-04-08T12:12:40;30.90;;;16.83;;
4726;SDS011;2377;51.734;8.950;2023-04-08T12:15:22;30.93;;;17.17;;
4726;SDS011;2377;51.734;8.950;2023-04-08T12:17:50;31.97;;;17.00;;
4726;SDS011;2377;51.734;8.950;2023-04-08T12:20:20;30.43;;;16.97;;
4726;SDS011;2377;51.734;8.950;2023-04-08T12:22:51;34.00;;;17.50;;
4726;SDS011;2377;51.734;8.950;2023-04-08T12:25:18;30.73;;;17.57;;
4726;SDS011;2377;51.734;8.950;2023-04-08T12:27:46;31.87;;;16.97;;
4726;SDS011;2377;51.734;8.950;2023-04-08T12:30:13;30.50;;;17.00;;
4726;SDS011;2377;51.734;8.950;2023-04-08T12:32:40;32.93;;;17.00;;
4726;SDS011;2377;51.734;8.950;2023-04-08T12:35:09;33.80;;;17.20;;
4726;SDS011;2377;51.734;8.950;2023-04-08T12:37:36;27.83;;;16.10;;
4726;SDS011;2377;51.734;8.950;2023-04-08T12:40:03;33.17;;;18.03;;
4726;SDS011;2377;51.734;8.950;2023-04-08T12:42:32;31.70;;;18.07;;
4726;SDS011;2377;51.734;8.950;2023-04-08T12:45:01;31.63;;;16.37;;
4726;SDS011;2377;51.734;8.950;2023-04-08T12:47:28;31.00;;;15.90;;
4726;SDS011;2377;51.734;8.950;2023-04-08T12:49:55;29.93;;;16.10;;
4726;SDS011;2377;51.734;8.950;2023-04-08T12:52:21;33.20;;;19.70;;
4726;SDS011;2377;51.734;8.950;2023-04-08T12:54:48;31.07;;;17.43;;
4726;SDS011;2377;51.734;8.950;2023-04-08T12:57:15;30.43;;;17.80;;
4726;SDS011;2377;51.734;8.950;2023-04-08T12:59:42;29.80;;;17.10;;
4726;SDS011;2377;51.734;8.950;2023-04-08T13:02:11;27.43;;;16.43;;
4726;SDS011;2377;51.734;8.950;2023-04-08T13:04:38;36.27;;;19.43;;
4726;SDS011;2377;51.734;8.950;2023-04-08T13:07:05;35.83;;;18.50;;
4726;SDS011;2377;51.734;8.950;2023-04-08T13:09:32;31.77;;;17.43;;
4726;SDS011;2377;51.734;8.950;2023-04-08T13:12:01;34.40;;;18.87;;
4726;SDS011;2377;51.734;8.950;2023-04-08T13:14:28;29.67;;;17.70;;
4726;SDS011;2377;51.734;8.950;2023-04-08T13:16:55;33.70;;;17.67;;
4726;SDS011;2377;51.734;8.950;2023-04-08T13:19:24;37.53;;;18.97;;
4726;SDS011;2377;51.734;8.950;2023-04-08T13:21:51;38.30;;;19.83;;
4726;SDS011;2377;51.734;8.950;2023-04-08T13:24:18;35.73;;;18.10;;
4726;SDS011;2377;51.734;8.950;2023-04-08T13:26:44;35.77;;;18.27;;
4726;SDS011;2377;51.734;8.950;2023-04-08T13:29:11;30.10;;;18.37;;
4726;SDS011;2377;51.734;8.950;2023-04-08T13:31:38;33.10;;;18.63;;
4726;SDS011;2377;51.734;8.950;2023-04-08T13:34:05;38.77;;;21.40;;
4726;SDS011;2377;51.734;8.950;2023-04-08T13:36:33;40.30;;;21.30;;
4726;SDS011;2377;51.734;8.950;2023-04-08T13:39:00;31.50;;;18.83;;
4726;SDS011;2377;51.734;8.950;2023-04-08T13:41:27;38.07;;;19.57;;
4726;SDS011;2377;51.734;8.950;2023-04-08T13:43:54;37.20;;;18.37;;
4726;SDS011;2377;51.734;8.950;2023-04-08T13:46:21;33.90;;;18.97;;
4726;SDS011;2377;51.734;8.950;2023-04-08T13:48:48;35.70;;;19.00;;
4726;SDS011;2377;51.734;8.950;2023-04-08T13:51:15;34.60;;;17.70;;
4726;SDS011;2377;51.734;8.950;2023-04-08T13:53:43;31.87;;;19.47;;
4726;SDS011;2377;51.734;8.950;2023-04-08T13:56:10;31.80;;;17.50;;
4726;SDS011;2377;51.734;8.950;2023-04-08T13:58:37;31.00;;;18.37;;
4726;SDS011;2377;51.734;8.950;2023-04-08T14:01:04;34.30;;;19.17;;
4726;SDS011;2377;51.734;8.950;2023-04-08T14:03:31;34.07;;;19.77;;
4726;SDS011;2377;51.734;8.950;2023-04-08T14:05:58;29.20;;;17.53;;
4726;SDS011;2377;51.734;8.950;2023-04-08T14:08:25;30.57;;;16.27;;
4726;SDS011;2377;51.734;8.950;2023-04-08T14:10:55;31.37;;;16.93;;
4726;SDS011;2377;51.734;8.950;2023-04-08T14:13:22;29.20;;;18.23;;
4726;SDS011;2377;51.734;8.950;2023-04-08T14:15:49;34.23;;;19.10;;
4726;SDS011;2377;51.734;8.950;2023-04-08T14:18:19;34.90;;;18.03;;
4726;SDS011;2377;51.734;8.950;2023-04-08T14:20:46;35.63;;;18.27;;
4726;SDS011;2377;51.734;8.950;2023-04-08T14:23:13;31.53;;;16.67;;
4726;SDS011;2377;51.734;8.950;2023-04-08T14:25:40;30.93;;;18.13;;
4726;SDS011;2377;51.734;8.950;2023-04-08T14:28:09;29.60;;;18.20;;
4726;SDS011;2377;51.734;8.950;2023-04-08T14:30:36;28.80;;;16.80;;
4726;SDS011;2377;51.734;8.950;2023-04-08T14:33:03;29.90;;;16.30;;
4726;SDS011;2377;51.734;8.950;2023-04-08T14:35:30;29.50;;;18.43;;
4726;SDS011;2377;51.734;8.950;2023-04-08T14:37:57;29.43;;;17.27;;
4726;SDS011;2377;51.734;8.950;2023-04-08T14:40:24;30.17;;;18.23;;
4726;SDS011;2377;51.734;8.950;2023-04-08T14:42:52;29.17;;;16.70;;
4726;SDS011;2377;51.734;8.950;2023-04-08T14:45:21;25.90;;;15.97;;
4726;SDS011;2377;51.734;8.950;2023-04-08T14:47:48;28.93;;;16.87;;
4726;SDS011;2377;51.734;8.950;2023-04-08T14:50:15;32.93;;;16.60;;
4726;SDS011;2377;51.734;8.950;2023-04-08T14:52:42;26.47;;;15.80;;
4726;SDS011;2377;51.734;8.950;2023-04-08T14:55:12;31.40;;;18.50;;
4726;SDS011;2377;51.734;8.950;2023-04-08T14:57:39;29.67;;;17.53;;
4726;SDS011;2377;51.734;8.950;2023-04-08T15:00:06;27.43;;;15.33;;
4726;SDS011;2377;51.734;8.950;2023-04-08T15:02:36;24.73;;;15.77;;
4726;SDS011;2377;51.734;8.950;2023-04-08T15:05:03;27.80;;;15.10;;
4726;SDS011;2377;51.734;8.950;2023-04-08T15:07:31;27.67;;;15.60;;
4726;SDS011;2377;51.734;8.950;2023-04-08T15:09:58;30.97;;;16.73;;
4726;SDS011;2377;51.734;8.950;2023-04-08T15:12:25;27.53;;;15.13;;
4726;SDS011;2377;51.734;8.950;2023-04-08T15:14:53;25.37;;;15.40;;